sensor_id;sensor_type;location;lat;lon;timestamp;P1;durP1;ratioP1;P2;durP2;ratioP2
62256;SDS011;48240;52.962;5.790;2023-05-20T03:53:30;4.43;;;1.90;;
62256;SDS011;48240;52.962;5.790;2023-05-20T03:55:56;3.90;;;1.90;;
62256;SDS011;48240;52.962;5.790;2023-05-20T03:58:23;3.70;;;1.90;;
62256;SDS011;48240;52.962;5.790;2023-05-20T04:00:50;3.63;;;1.70;;
62256;SDS011;48240;52.962;5.790;2023-05-20T04:03:16;7.28;;;2.10;;
62256;SDS011;48240;52.962;5.790;2023-05-20T04:05:42;5.10;;;2.03;;
62256;SDS011;48240;52.962;5.790;2023-05-20T04:08:08;5.13;;;2.10;;
62256;SDS011;48240;52.962;5.790;2023-05-20T04:10:39;3.58;;;2.05;;
62256;SDS011;48240;52.962;5.790;2023-05-20T04:13:06;5.57;;;2.10;;
62256;SDS011;48240;52.962;5.790;2023-05-20T04:15:36;3.67;;;1.90;;
62256;SDS011;48240;52.962;5.790;2023-05-20T04:18:02;5.70;;;1.90;;
62256;SDS011;48240;52.962;5.790;2023-05-20T04:20:30;4.38;;;2.00;;
62256;SDS011;48240;52.962;5.790;2023-05-20T04:22:56;2.88;;;1.70;;
62256;SDS011;48240;52.962;5.790;2023-05-20T04:25:22;5.88;;;2.10;;
62256;SDS011;48240;52.962;5.790;2023-05-20T04:27:50;3.13;;;2.00;;
62256;SDS011;48240;52.962;5.790;2023-05-20T04:30:18;4.00;;;2.30;;
62256;SDS011;48240;52.962;5.790;2023-05-20T04:32:46;4.60;;;1.80;;
62256;SDS011;48240;52.962;5.790;2023-05-20T04:35:12;3.88;;;1.90;;
62256;SDS011;48240;52.962;5.790;2023-05-20T04:37:38;5.03;;;1.88;;
62256;SDS011;48240;52.962;5.790;2023-05-20T04:40:06;3.17;;;1.83;;
62256;SDS011;48240;52.962;5.790;2023-05-20T04:42:33;4.97;;;1.70;;
62256;SDS011;48240;52.962;5.790;2023-05-20T04:44:59;4.78;;;1.80;;
62256;SDS011;48240;52.962;5.790;2023-05-20T04:47:26;2.83;;;1.67;;
62256;SDS011;48240;52.962;5.790;2023-05-20T04:49:54;2.78;;;1.67;;
62256;SDS011;48240;52.962;5.790;2023-05-20T04:52:22;4.45;;;1.88;;
62256;SDS011;48240;52.962;5.790;2023-05-20T04:54:48;3.17;;;2.00;;
62256;SDS011;48240;52.962;5.790;2023-05-20T04:57:15;5.25;;;1.88;;
62256;SDS011;48240;52.962;5.790;2023-05-20T04:59:45;3.47;;;1.90;;
62256;SDS011;48240;52.962;5.790;2023-05-20T05:02:11;3.92;;;2.17;;
62256;SDS011;48240;52.962;5.790;2023-05-20T05:04:37;4.10;;;1.70;;
62256;SDS011;48240;52.962;5.790;2023-05-20T05:07:03;6.30;;;1.80;;
62256;SDS011;48240;52.962;5.790;2023-05-20T05:09:29;2.85;;;1.77;;
62256;SDS011;48240;52.962;5.790;2023-05-20T05:11:55;3.63;;;1.67;;
62256;SDS011;48240;52.962;5.790;2023-05-20T05:14:21;4.22;;;1.92;;
62256;SDS011;48240;52.962;5.790;2023-05-20T05:16:48;3.40;;;1.80;;
62256;SDS011;48240;52.962;5.790;2023-05-20T05:19:14;2.88;;;1.60;;
62256;SDS011;48240;52.962;5.790;2023-05-20T05:21:40;3.92;;;1.48;;
62256;SDS011;48240;52.962;5.790;2023-05-20T05:24:06;3.53;;;1.77;;
62256;SDS011;48240;52.962;5.790;2023-05-20T05:26:32;2.83;;;1.60;;
62256;SDS011;48240;52.962;5.790;2023-05-20T05:28:58;2.67;;;1.30;;
62256;SDS011;48240;52.962;5.790;2023-05-20T05:31:24;3.92;;;1.40;;
62256;SDS011;48240;52.962;5.790;2023-05-20T05:33:50;3.42;;;1.60;;
62256;SDS011;48240;52.962;5.790;2023-05-20T05:36:16;4.07;;;1.70;;
62256;SDS011;48240;52.962;5.790;2023-05-20T05:38:42;1.95;;;1.30;;
62256;SDS011;48240;52.962;5.790;2023-05-20T05:41:09;2.80;;;1.50;;
62256;SDS011;48240;52.962;5.790;2023-05-20T05:43:35;4.25;;;1.52;;
62256;SDS011;48240;52.962;5.790;2023-05-20T05:46:01;5.75;;;1.67;;
62256;SDS011;48240;52.962;5.790;2023-05-20T05:48:27;3.72;;;1.40;;
62256;SDS011;48240;52.962;5.790;2023-05-20T05:50:53;3.83;;;1.70;;
62256;SDS011;48240;52.962;5.790;2023-05-20T05:53:19;5.75;;;1.80;;
62256;SDS011;48240;52.962;5.790;2023-05-20T05:55:45;3.97;;;1.90;;
62256;SDS011;48240;52.962;5.790;2023-05-20T05:58:12;4.40;;;2.00;;
62256;SDS011;48240;52.962;5.790;2023-05-20T06:00:38;6.85;;;2.00;;
62256;SDS011;48240;52.962;5.790;2023-05-20T06:03:04;6.05;;;1.58;;
62256;SDS011;48240;52.962;5.790;2023-05-20T06:05:30;4.35;;;1.40;;
62256;SDS011;48240;52.962;5.790;2023-05-20T06:07:56;5.70;;;1.70;;
62256;SDS011;48240;52.962;5.790;2023-05-20T06:10:22;4.07;;;1.75;;
62256;SDS011;48240;52.962;5.790;2023-05-20T06:12:48;5.97;;;1.77;;
62256;SDS011;48240;52.962;5.790;2023-05-20T06:15:14;5.90;;;1.65;;
62256;SDS011;48240;52.962;5.790;2023-05-20T06:17:40;11.02;;;1.70;;
62256;SDS011;48240;52.962;5.790;2023-05-20T06:20:07;4.63;;;1.60;;
62256;SDS011;48240;52.962;5.790;2023-05-20T06:22:33;4.07;;;1.45;;
62256;SDS011;48240;52.962;5.790;2023-05-20T06:24:59;5.60;;;1.70;;
62256;SDS011;48240;52.962;5.790;2023-05-20T06:27:26;5.32;;;1.77;;
62256;SDS011;48240;52.962;5.790;2023-05-20T06:29:52;4.93;;;1.50;;
62256;SDS011;48240;52.962;5.790;2023-05-20T06:32:19;2.92;;;1.55;;
62256;SDS011;48240;52.962;5.790;2023-05-20T06:34:45;6.90;;;1.77;;
62256;SDS011;48240;52.962;5.790;2023-05-20T06:37:11;3.55;;;1.45;;
62256;SDS011;48240;52.962;5.790;2023-05-20T06:39:37;6.63;;;1.88;;
62256;SDS011;48240;52.962;5.790;2023-05-20T06:42:03;6.75;;;1.50;;
62256;SDS011;48240;52.962;5.790;2023-05-20T06:44:29;4.85;;;1.40;;
62256;SDS011;48240;52.962;5.790;2023-05-20T06:46:56;2.15;;;1.08;;
62256;SDS011;48240;52.962;5.790;2023-05-20T06:49:22;3.53;;;1.20;;
62256;SDS011;48240;52.962;5.790;2023-05-20T06:51:48;2.95;;;1.38;;
62256;SDS011;48240;52.962;5.790;2023-05-20T06:54:14;4.53;;;1.75;;
62256;SDS011;48240;52.962;5.790;2023-05-20T06:56:41;3.53;;;1.42;;
62256;SDS011;48240;52.962;5.790;2023-05-20T06:59:08;3.00;;;1.23;;
62256;SDS011;48240;52.962;5.790;2023-05-20T07:01:34;5.90;;;1.05;;
62256;SDS011;48240;52.962;5.790;2023-05-20T07:04:00;4.43;;;1.35;;
62256;SDS011;48240;52.962;5.790;2023-05-20T07:06:26;2.85;;;1.38;;
62256;SDS011;48240;52.962;5.790;2023-05-20T07:08:54;4.75;;;1.30;;
62256;SDS011;48240;52.962;5.790;2023-05-20T07:11:20;2.85;;;1.15;;
62256;SDS011;48240;52.962;5.790;2023-05-20T07:13:47;3.05;;;1.48;;
62256;SDS011;48240;52.962;5.790;2023-05-20T07:16:13;2.80;;;1.35;;
62256;SDS011;48240;52.962;5.790;2023-05-20T07:18:39;2.15;;;1.10;;
62256;SDS011;48240;52.962;5.790;2023-05-20T07:21:05;3.67;;;1.38;;
62256;SDS011;48240;52.962;5.790;2023-05-20T07:23:31;2.05;;;1.33;;
62256;SDS011;48240;52.962;5.790;2023-05-20T07:25:57;4.65;;;1.20;;
62256;SDS011;48240;52.962;5.790;2023-05-20T07:28:23;5.30;;;1.40;;
62256;SDS011;48240;52.962;5.790;2023-05-20T07:30:49;3.15;;;1.40;;
62256;SDS011;48240;52.962;5.790;2023-05-20T07:33:16;4.38;;;1.20;;
62256;SDS011;48240;52.962;5.790;2023-05-20T07:35:42;2.08;;;1.10;;
62256;SDS011;48240;52.962;5.790;2023-05-20T07:38:09;3.05;;;1.20;;
62256;SDS011;48240;52.962;5.790;2023-05-20T07:40:36;3.15;;;1.27;;
62256;SDS011;48240;52.962;5.790;2023-05-20T07:43:04;4.55;;;1.15;;
62256;SDS011;48240;52.962;5.790;2023-05-20T07:45:31;4.53;;;1.35;;
62256;SDS011;48240;52.962;5.790;2023-05-20T07:47:57;4.70;;;1.15;;
62256;SDS011;48240;52.962;5.790;2023-05-20T07:50:23;2.50;;;1.17;;
62256;SDS011;48240;52.962;5.790;2023-05-20T07:52:50;1.75;;;1.08;;
62256;SDS011;48240;52.962;5.790;2023-05-20T07:55:16;5.00;;;1.42;;
62256;SDS011;48240;52.962;5.790;2023-05-20T07:57:42;2.58;;;1.08;;
62256;SDS011;48240;52.962;5.790;2023-05-20T08:00:08;3.83;;;1.20;;
62256;SDS011;48240;52.962;5.790;2023-05-20T08:02:36;3.83;;;1.38;;
62256;SDS011;48240;52.962;5.790;2023-05-20T08:05:02;2.17;;;1.08;;
62256;SDS011;48240;52.962;5.790;2023-05-20T08:07:29;2.83;;;1.10;;
62256;SDS011;48240;52.962;5.790;2023-05-20T08:09:55;5.32;;;1.27;;
62256;SDS011;48240;52.962;5.790;2023-05-20T08:12:22;2.90;;;1.02;;
62256;SDS011;48240;52.962;5.790;2023-05-20T08:14:48;3.85;;;1.38;;
62256;SDS011;48240;52.962;5.790;2023-05-20T08:17:14;3.40;;;1.20;;
62256;SDS011;48240;52.962;5.790;2023-05-20T08:19:40;2.30;;;0.95;;
62256;SDS011;48240;52.962;5.790;2023-05-20T08:22:06;11.32;;;1.45;;
62256;SDS011;48240;52.962;5.790;2023-05-20T08:24:32;3.80;;;1.02;;
62256;SDS011;48240;52.962;5.790;2023-05-20T08:26:58;2.75;;;1.13;;
62256;SDS011;48240;52.962;5.790;2023-05-20T08:29:25;4.50;;;1.10;;
62256;SDS011;48240;52.962;5.790;2023-05-20T08:31:51;5.85;;;0.90;;
62256;SDS011;48240;52.962;5.790;2023-05-20T08:34:17;3.92;;;1.17;;
62256;SDS011;48240;52.962;5.790;2023-05-20T08:36:43;2.20;;;1.10;;
62256;SDS011;48240;52.962;5.790;2023-05-20T08:39:10;4.15;;;0.88;;
62256;SDS011;48240;52.962;5.790;2023-05-20T08:41:36;1.10;;;0.80;;
62256;SDS011;48240;52.962;5.790;2023-05-20T08:44:02;2.40;;;0.90;;
62256;SDS011;48240;52.962;5.790;2023-05-20T08:46:30;5.20;;;0.90;;
62256;SDS011;48240;52.962;5.790;2023-05-20T08:48:56;3.10;;;0.90;;
62256;SDS011;48240;52.962;5.790;2023-05-20T08:51:23;2.35;;;1.13;;
62256;SDS011;48240;52.962;5.790;2023-05-20T08:53:51;1.52;;;0.90;;
62256;SDS011;48240;52.962;5.790;2023-05-20T08:56:17;5.47;;;0.80;;
62256;SDS011;48240;52.962;5.790;2023-05-20T08:58:43;2.92;;;1.17;;
62256;SDS011;48240;52.962;5.790;2023-05-20T09:01:11;1.67;;;0.73;;
62256;SDS011;48240;52.962;5.790;2023-05-20T09:03:37;1.00;;;0.70;;
62256;SDS011;48240;52.962;5.790;2023-05-20T09:06:03;1.58;;;0.80;;
62256;SDS011;48240;52.962;5.790;2023-05-20T09:08:30;2.47;;;1.17;;
62256;SDS011;48240;52.962;5.790;2023-05-20T09:10:56;2.60;;;0.90;;
62256;SDS011;48240;52.962;5.790;2023-05-20T09:13:22;1.95;;;0.98;;
62256;SDS011;48240;52.962;5.790;2023-05-20T09:15:48;7.68;;;1.88;;
62256;SDS011;48240;52.962;5.790;2023-05-20T09:18:14;1.63;;;1.00;;
62256;SDS011;48240;52.962;5.790;2023-05-20T09:20:41;1.70;;;0.80;;
62256;SDS011;48240;52.962;5.790;2023-05-20T09:23:08;1.73;;;0.80;;
62256;SDS011;48240;52.962;5.790;2023-05-20T09:25:34;1.55;;;0.90;;
62256;SDS011;48240;52.962;5.790;2023-05-20T09:28:01;2.17;;;0.93;;
62256;SDS011;48240;52.962;5.790;2023-05-20T09:30:30;2.60;;;1.00;;
62256;SDS011;48240;52.962;5.790;2023-05-20T09:32:58;1.35;;;0.80;;
62256;SDS011;48240;52.962;5.790;2023-05-20T09:35:25;1.60;;;0.80;;
62256;SDS011;48240;52.962;5.790;2023-05-20T09:37:55;2.42;;;0.82;;
62256;SDS011;48240;52.962;5.790;2023-05-20T09:40:26;3.67;;;1.20;;
62256;SDS011;48240;52.962;5.790;2023-05-20T09:45:19;1.67;;;1.00;;
62256;SDS011;48240;52.962;5.790;2023-05-20T09:47:46;2.28;;;1.00;;
62256;SDS011;48240;52.962;5.790;2023-05-20T09:50:13;1.70;;;1.00;;
62256;SDS011;48240;52.962;5.790;2023-05-20T09:52:39;1.95;;;0.80;;
62256;SDS011;48240;52.962;5.790;2023-05-20T09:55:06;2.97;;;0.93;;
62256;SDS011;48240;52.962;5.790;2023-05-20T09:57:35;3.72;;;1.10;;
62256;SDS011;48240;52.962;5.790;2023-05-20T10:00:02;2.40;;;1.00;;
62256;SDS011;48240;52.962;5.790;2023-05-20T10:02:30;1.77;;;0.80;;
62256;SDS011;48240;52.962;5.790;2023-05-20T10:04:56;1.42;;;0.85;;
62256;SDS011;48240;52.962;5.790;2023-05-20T10:07:27;4.70;;;0.93;;
62256;SDS011;48240;52.962;5.790;2023-05-20T10:12:54;1.90;;;0.80;;
62256;SDS011;48240;52.962;5.790;2023-05-20T10:20:25;3.22;;;1.02;;
62256;SDS011;48240;52.962;5.790;2023-05-20T10:22:54;1.67;;;1.00;;
62256;SDS011;48240;52.962;5.790;2023-05-20T10:25:28;11.27;;;0.90;;
62256;SDS011;48240;52.962;5.790;2023-05-20T10:28:04;5.65;;;1.05;;
62256;SDS011;48240;52.962;5.790;2023-05-20T10:30:31;3.70;;;0.98;;
62256;SDS011;48240;52.962;5.790;2023-05-20T10:33:02;1.05;;;0.77;;
62256;SDS011;48240;52.962;5.790;2023-05-20T10:35:29;1.75;;;0.80;;
62256;SDS011;48240;52.962;5.790;2023-05-20T10:38:09;0.82;;;0.73;;
62256;SDS011;48240;52.962;5.790;2023-05-20T10:40:35;0.85;;;0.70;;
62256;SDS011;48240;52.962;5.790;2023-05-20T10:43:08;3.05;;;0.93;;
62256;SDS011;48240;52.962;5.790;2023-05-20T10:45:35;4.78;;;1.30;;
62256;SDS011;48240;52.962;5.790;2023-05-20T10:48:18;1.65;;;1.00;;
62256;SDS011;48240;52.962;5.790;2023-05-20T10:50:45;5.57;;;1.00;;
62256;SDS011;48240;52.962;5.790;2023-05-20T10:53:11;4.40;;;0.93;;
62256;SDS011;48240;52.962;5.790;2023-05-20T10:55:39;8.18;;;1.13;;
62256;SDS011;48240;52.962;5.790;2023-05-20T10:58:05;4.47;;;1.10;;
62256;SDS011;48240;52.962;5.790;2023-05-20T11:00:35;7.80;;;1.02;;
62256;SDS011;48240;52.962;5.790;2023-05-20T11:03:01;9.82;;;0.93;;
62256;SDS011;48240;52.962;5.790;2023-05-20T11:05:29;1.85;;;0.93;;
62256;SDS011;48240;52.962;5.790;2023-05-20T11:08:05;4.57;;;1.05;;
62256;SDS011;48240;52.962;5.790;2023-05-20T11:10:35;5.32;;;1.30;;
62256;SDS011;48240;52.962;5.790;2023-05-20T11:13:02;7.72;;;1.40;;
62256;SDS011;48240;52.962;5.790;2023-05-20T11:15:28;6.00;;;1.10;;
62256;SDS011;48240;52.962;5.790;2023-05-20T11:17:58;3.08;;;1.00;;
62256;SDS011;48240;52.962;5.790;2023-05-20T11:20:24;2.08;;;0.90;;
62256;SDS011;48240;52.962;5.790;2023-05-20T11:22:51;8.73;;;1.08;;
62256;SDS011;48240;52.962;5.790;2023-05-20T11:25:17;4.25;;;1.20;;
62256;SDS011;48240;52.962;5.790;2023-05-20T11:27:44;2.13;;;1.10;;
62256;SDS011;48240;52.962;5.790;2023-05-20T11:30:13;1.95;;;1.30;;
62256;SDS011;48240;52.962;5.790;2023-05-20T11:32:43;4.03;;;0.93;;
62256;SDS011;48240;52.962;5.790;2023-05-20T11:35:22;6.55;;;1.08;;
62256;SDS011;48240;52.962;5.790;2023-05-20T11:40:25;2.58;;;1.25;;
62256;SDS011;48240;52.962;5.790;2023-05-20T11:42:55;2.38;;;0.90;;
62256;SDS011;48240;52.962;5.790;2023-05-20T11:45:21;6.28;;;1.10;;
62256;SDS011;48240;52.962;5.790;2023-05-20T11:48:03;6.57;;;1.20;;
62256;SDS011;48240;52.962;5.790;2023-05-20T11:50:33;3.70;;;0.98;;
62256;SDS011;48240;52.962;5.790;2023-05-20T11:53:01;2.50;;;1.10;;
62256;SDS011;48240;52.962;5.790;2023-05-20T11:55:28;4.10;;;1.30;;
62256;SDS011;48240;52.962;5.790;2023-05-20T11:57:54;5.95;;;1.17;;
62256;SDS011;48240;52.962;5.790;2023-05-20T12:00:21;3.25;;;1.17;;
62256;SDS011;48240;52.962;5.790;2023-05-20T12:02:47;2.38;;;1.30;;
62256;SDS011;48240;52.962;5.790;2023-05-20T12:05:13;4.68;;;1.20;;
62256;SDS011;48240;52.962;5.790;2023-05-20T12:07:40;4.50;;;1.08;;
62256;SDS011;48240;52.962;5.790;2023-05-20T12:10:06;3.13;;;1.10;;
62256;SDS011;48240;52.962;5.790;2023-05-20T12:12:32;4.45;;;1.15;;
62256;SDS011;48240;52.962;5.790;2023-05-20T12:15:01;1.77;;;1.00;;
62256;SDS011;48240;52.962;5.790;2023-05-20T12:17:27;3.30;;;1.27;;
62256;SDS011;48240;52.962;5.790;2023-05-20T12:19:53;2.78;;;1.00;;
62256;SDS011;48240;52.962;5.790;2023-05-20T12:22:19;4.45;;;1.23;;
62256;SDS011;48240;52.962;5.790;2023-05-20T12:24:45;4.13;;;1.20;;
62256;SDS011;48240;52.962;5.790;2023-05-20T12:27:11;2.78;;;1.40;;
62256;SDS011;48240;52.962;5.790;2023-05-20T12:29:37;2.95;;;1.13;;
62256;SDS011;48240;52.962;5.790;2023-05-20T12:32:03;4.78;;;1.52;;
62256;SDS011;48240;52.962;5.790;2023-05-20T12:34:29;1.67;;;1.10;;
62256;SDS011;48240;52.962;5.790;2023-05-20T12:36:57;5.22;;;1.30;;
62256;SDS011;48240;52.962;5.790;2023-05-20T12:39:23;2.83;;;1.20;;
62256;SDS011;48240;52.962;5.790;2023-05-20T12:41:49;2.67;;;1.23;;
62256;SDS011;48240;52.962;5.790;2023-05-20T12:44:15;2.85;;;1.52;;
62256;SDS011;48240;52.962;5.790;2023-05-20T12:46:41;2.88;;;1.10;;
62256;SDS011;48240;52.962;5.790;2023-05-20T12:49:07;4.38;;;1.00;;
62256;SDS011;48240;52.962;5.790;2023-05-20T12:51:33;3.58;;;1.30;;
62256;SDS011;48240;52.962;5.790;2023-05-20T12:54:00;2.53;;;1.00;;
62256;SDS011;48240;52.962;5.790;2023-05-20T12:56:26;2.50;;;1.17;;
62256;SDS011;48240;52.962;5.790;2023-05-20T12:58:52;3.60;;;1.20;;
62256;SDS011;48240;52.962;5.790;2023-05-20T13:01:19;3.10;;;1.38;;
62256;SDS011;48240;52.962;5.790;2023-05-20T13:03:45;3.30;;;1.20;;
62256;SDS011;48240;52.962;5.790;2023-05-20T13:06:12;2.28;;;1.20;;
62256;SDS011;48240;52.962;5.790;2023-05-20T13:08:38;2.08;;;0.95;;
62256;SDS011;48240;52.962;5.790;2023-05-20T13:11:04;2.42;;;1.10;;
62256;SDS011;48240;52.962;5.790;2023-05-20T13:13:30;3.63;;;1.13;;
62256;SDS011;48240;52.962;5.790;2023-05-20T13:15:56;2.75;;;1.30;;
62256;SDS011;48240;52.962;5.790;2023-05-20T13:18:22;2.33;;;1.30;;
62256;SDS011;48240;52.962;5.790;2023-05-20T13:20:48;2.53;;;1.30;;
62256;SDS011;48240;52.962;5.790;2023-05-20T13:23:14;3.45;;;1.10;;
62256;SDS011;48240;52.962;5.790;2023-05-20T13:25:40;3.40;;;1.10;;
62256;SDS011;48240;52.962;5.790;2023-05-20T13:28:06;2.35;;;1.10;;
62256;SDS011;48240;52.962;5.790;2023-05-20T13:30:33;4.28;;;1.33;;
62256;SDS011;48240;52.962;5.790;2023-05-20T13:32:59;3.30;;;1.10;;
62256;SDS011;48240;52.962;5.790;2023-05-20T13:35:25;4.60;;;1.38;;
62256;SDS011;48240;52.962;5.790;2023-05-20T13:37:51;2.35;;;1.30;;
62256;SDS011;48240;52.962;5.790;2023-05-20T13:40:18;2.53;;;1.30;;
62256;SDS011;48240;52.962;5.790;2023-05-20T13:42:44;2.17;;;1.27;;
62256;SDS011;48240;52.962;5.790;2023-05-20T13:45:10;2.15;;;1.30;;
62256;SDS011;48240;52.962;5.790;2023-05-20T13:47:36;1.58;;;1.05;;
62256;SDS011;48240;52.962;5.790;2023-05-20T13:50:02;3.28;;;0.98;;
62256;SDS011;48240;52.962;5.790;2023-05-20T13:52:28;2.85;;;1.20;;
62256;SDS011;48240;52.962;5.790;2023-05-20T13:54:54;5.13;;;1.50;;
62256;SDS011;48240;52.962;5.790;2023-05-20T13:57:21;2.13;;;1.10;;
62256;SDS011;48240;52.962;5.790;2023-05-20T13:59:47;5.07;;;1.23;;
62256;SDS011;48240;52.962;5.790;2023-05-20T14:02:13;2.45;;;1.00;;
62256;SDS011;48240;52.962;5.790;2023-05-20T14:04:39;3.33;;;1.40;;
62256;SDS011;48240;52.962;5.790;2023-05-20T14:07:08;5.55;;;1.50;;
62256;SDS011;48240;52.962;5.790;2023-05-20T14:09:34;4.68;;;1.20;;
62256;SDS011;48240;52.962;5.790;2023-05-20T14:12:01;2.50;;;1.10;;
62256;SDS011;48240;52.962;5.790;2023-05-20T14:14:27;2.38;;;1.48;;
62256;SDS011;48240;52.962;5.790;2023-05-20T14:16:53;3.03;;;1.40;;
62256;SDS011;48240;52.962;5.790;2023-05-20T14:19:19;2.85;;;1.20;;
62256;SDS011;48240;52.962;5.790;2023-05-20T14:21:45;4.47;;;1.30;;
62256;SDS011;48240;52.962;5.790;2023-05-20T14:24:11;4.53;;;1.40;;
62256;SDS011;48240;52.962;5.790;2023-05-20T14:26:37;3.85;;;1.30;;
62256;SDS011;48240;52.962;5.790;2023-05-20T14:29:03;1.90;;;1.10;;
62256;SDS011;48240;52.962;5.790;2023-05-20T14:31:29;3.42;;;1.35;;
62256;SDS011;48240;52.962;5.790;2023-05-20T14:33:55;4.03;;;1.20;;
62256;SDS011;48240;52.962;5.790;2023-05-20T14:36:21;3.15;;;1.45;;
62256;SDS011;48240;52.962;5.790;2023-05-20T14:38:47;2.72;;;1.35;;
62256;SDS011;48240;52.962;5.790;2023-05-20T14:41:13;3.63;;;1.30;;
62256;SDS011;48240;52.962;5.790;2023-05-20T14:43:39;3.85;;;1.45;;
62256;SDS011;48240;52.962;5.790;2023-05-20T14:46:06;3.78;;;1.17;;
62256;SDS011;48240;52.962;5.790;2023-05-20T14:48:32;4.20;;;1.45;;
62256;SDS011;48240;52.962;5.790;2023-05-20T14:50:58;5.13;;;1.50;;
62256;SDS011;48240;52.962;5.790;2023-05-20T14:53:24;2.17;;;1.35;;
62256;SDS011;48240;52.962;5.790;2023-05-20T14:55:50;2.67;;;1.05;;
62256;SDS011;48240;52.962;5.790;2023-05-20T14:58:16;2.53;;;1.00;;
62256;SDS011;48240;52.962;5.790;2023-05-20T15:00:42;1.88;;;1.20;;
62256;SDS011;48240;52.962;5.790;2023-05-20T15:03:08;4.13;;;1.48;;
62256;SDS011;48240;52.962;5.790;2023-05-20T15:05:35;3.35;;;1.13;;
62256;SDS011;48240;52.962;5.790;2023-05-20T15:08:01;1.75;;;1.13;;
62256;SDS011;48240;52.962;5.790;2023-05-20T15:10:28;2.65;;;1.33;;
62256;SDS011;48240;52.962;5.790;2023-05-20T15:12:54;4.97;;;1.33;;
62256;SDS011;48240;52.962;5.790;2023-05-20T15:15:20;4.07;;;1.40;;
62256;SDS011;48240;52.962;5.790;2023-05-20T15:17:46;2.83;;;1.40;;
62256;SDS011;48240;52.962;5.790;2023-05-20T15:20:12;2.20;;;1.40;;
62256;SDS011;48240;52.962;5.790;2023-05-20T15:22:38;2.60;;;1.15;;
62256;SDS011;48240;52.962;5.790;2023-05-20T15:25:05;2.65;;;1.00;;
62256;SDS011;48240;52.962;5.790;2023-05-20T15:27:31;4.05;;;1.25;;
62256;SDS011;48240;52.962;5.790;2023-05-20T15:29:57;3.20;;;1.42;;
62256;SDS011;48240;52.962;5.790;2023-05-20T15:32:23;4.60;;;1.40;;
62256;SDS011;48240;52.962;5.790;2023-05-20T15:34:50;2.60;;;1.30;;
62256;SDS011;48240;52.962;5.790;2023-05-20T15:37:16;1.35;;;0.95;;
62256;SDS011;48240;52.962;5.790;2023-05-20T15:39:42;5.53;;;1.40;;
62256;SDS011;48240;52.962;5.790;2023-05-20T15:42:08;6.72;;;1.40;;
62256;SDS011;48240;52.962;5.790;2023-05-20T15:44:38;4.32;;;1.52;;
62256;SDS011;48240;52.962;5.790;2023-05-20T15:47:04;3.47;;;1.48;;
62256;SDS011;48240;52.962;5.790;2023-05-20T15:49:30;4.03;;;1.13;;
62256;SDS011;48240;52.962;5.790;2023-05-20T15:51:56;4.05;;;1.30;;
62256;SDS011;48240;52.962;5.790;2023-05-20T15:54:22;2.80;;;1.20;;
62256;SDS011;48240;52.962;5.790;2023-05-20T15:56:48;6.55;;;1.30;;
62256;SDS011;48240;52.962;5.790;2023-05-20T15:59:14;8.27;;;1.77;;
62256;SDS011;48240;52.962;5.790;2023-05-20T16:01:40;7.43;;;2.05;;
62256;SDS011;48240;52.962;5.790;2023-05-20T16:04:06;13.15;;;2.55;;
62256;SDS011;48240;52.962;5.790;2023-05-20T16:06:33;12.43;;;2.10;;
62256;SDS011;48240;52.962;5.790;2023-05-20T16:08:59;7.70;;;2.08;;
62256;SDS011;48240;52.962;5.790;2023-05-20T16:11:26;8.00;;;1.73;;
62256;SDS011;48240;52.962;5.790;2023-05-20T16:13:52;6.15;;;1.70;;
62256;SDS011;48240;52.962;5.790;2023-05-20T16:16:18;21.77;;;2.53;;
62256;SDS011;48240;52.962;5.790;2023-05-20T16:18:45;6.25;;;1.83;;
62256;SDS011;48240;52.962;5.790;2023-05-20T16:21:11;4.95;;;2.00;;
62256;SDS011;48240;52.962;5.790;2023-05-20T16:23:37;6.60;;;2.08;;
62256;SDS011;48240;52.962;5.790;2023-05-20T16:26:03;5.05;;;1.48;;
62256;SDS011;48240;52.962;5.790;2023-05-20T16:28:29;6.38;;;1.65;;
62256;SDS011;48240;52.962;5.790;2023-05-20T16:30:55;5.25;;;1.73;;
62256;SDS011;48240;52.962;5.790;2023-05-20T16:33:22;9.65;;;1.70;;
62256;SDS011;48240;52.962;5.790;2023-05-20T16:35:48;5.18;;;1.58;;
62256;SDS011;48240;52.962;5.790;2023-05-20T16:38:14;3.97;;;1.52;;
62256;SDS011;48240;52.962;5.790;2023-05-20T16:40:40;4.97;;;1.75;;
62256;SDS011;48240;52.962;5.790;2023-05-20T16:43:06;6.13;;;1.80;;
62256;SDS011;48240;52.962;5.790;2023-05-20T16:45:32;4.97;;;2.08;;
62256;SDS011;48240;52.962;5.790;2023-05-20T16:47:59;6.47;;;1.70;;
62256;SDS011;48240;52.962;5.790;2023-05-20T16:50:25;8.00;;;1.67;;
62256;SDS011;48240;52.962;5.790;2023-05-20T16:52:51;7.43;;;1.38;;
62256;SDS011;48240;52.962;5.790;2023-05-20T16:55:18;5.93;;;1.60;;
62256;SDS011;48240;52.962;5.790;2023-05-20T16:57:44;4.88;;;1.58;;
62256;SDS011;48240;52.962;5.790;2023-05-20T17:00:12;3.75;;;1.42;;
62256;SDS011;48240;52.962;5.790;2023-05-20T17:02:38;5.15;;;1.50;;
62256;SDS011;48240;52.962;5.790;2023-05-20T17:05:04;5.65;;;1.55;;
62256;SDS011;48240;52.962;5.790;2023-05-20T17:07:31;7.03;;;1.35;;
62256;SDS011;48240;52.962;5.790;2023-05-20T17:09:57;4.35;;;1.20;;
62256;SDS011;48240;52.962;5.790;2023-05-20T17:12:23;3.28;;;1.30;;
62256;SDS011;48240;52.962;5.790;2023-05-20T17:14:49;6.80;;;1.50;;
62256;SDS011;48240;52.962;5.790;2023-05-20T17:17:15;3.80;;;1.50;;
62256;SDS011;48240;52.962;5.790;2023-05-20T17:19:42;5.18;;;1.60;;
62256;SDS011;48240;52.962;5.790;2023-05-20T17:22:08;4.20;;;1.42;;
62256;SDS011;48240;52.962;5.790;2023-05-20T17:24:34;2.35;;;1.42;;
62256;SDS011;48240;52.962;5.790;2023-05-20T17:27:00;7.07;;;1.40;;
62256;SDS011;48240;52.962;5.790;2023-05-20T17:29:30;6.20;;;1.40;;
62256;SDS011;48240;52.962;5.790;2023-05-20T17:31:56;3.58;;;1.30;;
62256;SDS011;48240;52.962;5.790;2023-05-20T17:34:22;1.80;;;1.30;;
62256;SDS011;48240;52.962;5.790;2023-05-20T17:36:48;12.52;;;1.50;;
62256;SDS011;48240;52.962;5.790;2023-05-20T17:39:14;4.05;;;1.38;;
62256;SDS011;48240;52.962;5.790;2023-05-20T17:41:41;5.00;;;1.20;;
62256;SDS011;48240;52.962;5.790;2023-05-20T17:44:07;3.92;;;1.40;;
62256;SDS011;48240;52.962;5.790;2023-05-20T17:46:33;4.57;;;1.40;;
62256;SDS011;48240;52.962;5.790;2023-05-20T17:48:59;8.68;;;1.65;;
62256;SDS011;48240;52.962;5.790;2023-05-20T17:51:25;5.32;;;1.50;;
62256;SDS011;48240;52.962;5.790;2023-05-20T17:53:51;4.03;;;1.38;;
62256;SDS011;48240;52.962;5.790;2023-05-20T17:56:17;3.88;;;1.48;;
62256;SDS011;48240;52.962;5.790;2023-05-20T17:58:43;3.90;;;1.30;;
62256;SDS011;48240;52.962;5.790;2023-05-20T18:01:09;3.95;;;1.48;;
62256;SDS011;48240;52.962;5.790;2023-05-20T18:03:35;2.95;;;1.45;;
62256;SDS011;48240;52.962;5.790;2023-05-20T18:06:03;3.40;;;1.48;;
62256;SDS011;48240;52.962;5.790;2023-05-20T18:08:30;3.05;;;1.30;;
62256;SDS011;48240;52.962;5.790;2023-05-20T18:10:57;4.00;;;1.30;;
62256;SDS011;48240;52.962;5.790;2023-05-20T18:13:23;5.20;;;1.58;;
62256;SDS011;48240;52.962;5.790;2023-05-20T18:15:49;2.85;;;1.30;;
62256;SDS011;48240;52.962;5.790;2023-05-20T18:18:16;3.30;;;1.10;;
62256;SDS011;48240;52.962;5.790;2023-05-20T18:20:42;5.00;;;1.70;;
62256;SDS011;48240;52.962;5.790;2023-05-20T18:23:08;5.18;;;1.30;;
62256;SDS011;48240;52.962;5.790;2023-05-20T18:25:34;7.57;;;1.55;;
62256;SDS011;48240;52.962;5.790;2023-05-20T18:28:01;4.30;;;1.30;;
62256;SDS011;48240;52.962;5.790;2023-05-20T18:30:27;3.90;;;1.45;;
62256;SDS011;48240;52.962;5.790;2023-05-20T18:32:53;1.80;;;1.20;;
62256;SDS011;48240;52.962;5.790;2023-05-20T18:35:21;2.78;;;1.58;;
62256;SDS011;48240;52.962;5.790;2023-05-20T18:37:47;6.28;;;1.35;;
62256;SDS011;48240;52.962;5.790;2023-05-20T18:40:13;2.83;;;1.20;;
62256;SDS011;48240;52.962;5.790;2023-05-20T18:42:39;4.13;;;1.70;;
62256;SDS011;48240;52.962;5.790;2023-05-20T18:45:05;3.08;;;1.30;;
62256;SDS011;48240;52.962;5.790;2023-05-20T18:47:32;4.53;;;1.40;;
62256;SDS011;48240;52.962;5.790;2023-05-20T18:49:58;3.30;;;1.30;;